Time;durP1;ratioP1;P1;durP2;ratioP2;P2;SDS_P1;SDS_P2;PMS_P1;PMS_P2;Temp;Humidity;BMP_temperature;BMP_pressure;BME280_temperature;BME280_humidity;BME280_pressure;Samples;Min_cycle;Max_cycle;Signal;HPM_P1;HPM_P2
2023/07/04 00:01:53;;;;;;;28.60;11.10;;;;;;;16.74;82.69;98571.56;67826;1277;1016590;-71
2023/07/04 00:04:56;;;;;;;28.50;10.80;;;;;;;16.71;83.50;98577.69;67802;1277;1016951;-71
2023/07/04 00:07:59;;;;;;;;;;;;;;;16.67;83.83;98579.39;67798;1277;1016572;-69
2023/07/04 00:11:02;;;;;;;28.80;11.00;;;;;;;16.62;84.34;98575.23;67855;1277;1016195;-69
2023/07/04 00:14:05;;;;;;;26.90;11.00;;;;;;;16.56;84.34;98571.41;67813;1277;1016554;-68
2023/07/04 00:17:07;;;;;;;31.10;11.10;;;;;;;16.56;84.99;98574.78;67839;1277;1016200;-68
2023/07/04 00:20:11;;;;;;;32.00;12.10;;;;;;;16.55;84.69;98578.70;67851;1277;1016314;-69
2023/07/04 00:23:15;;;;;;;29.30;10.90;;;;;;;16.53;85.11;98574.80;67877;1277;1015793;-69
2023/07/04 00:26:18;;;;;;;26.60;10.80;;;;;;;16.55;85.45;98576.98;67850;1277;1016410;-68
2023/07/04 00:29:21;;;;;;;31.00;11.40;;;;;;;16.65;85.95;98579.92;67809;1277;1016101;-69
2023/07/04 00:32:23;;;;;;;;;;;;;;;16.67;85.40;98583.27;67839;1277;1016465;-68
2023/07/04 00:35:26;;;;;;;;;;;;;;;16.64;84.64;98583.76;67868;1277;1016479;-69
2023/07/04 00:38:32;;;;;;;28.60;11.30;;;;;;;16.50;85.52;98585.55;67846;1277;1016595;-68
2023/07/04 00:41:35;;;;;;;29.20;11.30;;;;;;;16.40;86.03;98584.29;67818;1277;1016327;-70
2023/07/04 00:44:44;;;;;;;27.30;10.40;;;;;;;16.29;86.80;98588.61;67829;1277;1016305;-71
2023/07/04 00:47:53;;;;;;;28.70;10.70;;;;;;;16.28;87.15;98590.34;67860;1277;1016810;-71
2023/07/04 00:51:04;;;;;;;27.80;11.00;;;;;;;16.22;87.85;98588.51;67878;1277;1019823;-71
2023/07/04 00:54:06;;;;;;;28.90;10.40;;;;;;;16.23;88.71;98595.67;67840;1277;1016236;-69
2023/07/04 00:57:10;;;;;;;28.70;11.60;;;;;;;16.34;89.00;98593.80;67811;1277;1016445;-69
2023/07/04 01:00:15;;;;;;;30.30;11.50;;;;;;;16.36;89.20;98591.33;67873;1277;1016500;-68
2023/07/04 01:03:20;;;;;;;30.90;11.70;;;;;;;16.30;89.08;98588.70;67835;1277;1016284;-70
2023/07/04 01:06:24;;;;;;;26.70;11.20;;;;;;;16.33;89.85;98590.59;67810;1277;1016109;-71
2023/07/04 01:09:27;;;;;;;29.10;11.90;;;;;;;16.44;89.41;98592.27;67869;1277;1016285;-68
2023/07/04 01:12:29;;;;;;;;;;;;;;;16.49;89.94;98595.52;67798;1277;1016071;-68
2023/07/04 01:15:32;;;;;;;33.80;12.90;;;;;;;16.51;90.22;98603.77;67847;1277;1016397;-71
2023/07/04 01:18:35;;;;;;;29.80;12.10;;;;;;;16.57;89.67;98604.86;67858;1277;1016429;-72
2023/07/04 01:21:38;;;;;;;30.30;11.60;;;;;;;16.60;90.22;98599.23;67843;1277;1016225;-71
2023/07/04 01:24:40;;;;;;;29.50;11.40;;;;;;;16.78;89.99;98597.02;67862;1277;1016344;-71
2023/07/04 01:27:43;;;;;;;;;;;;;;;16.92;89.57;98602.09;67870;1277;1016694;-72
2023/07/04 01:30:45;;;;;;;29.00;11.30;;;;;;;16.98;88.60;98610.23;67838;1277;1016011;-71
2023/07/04 01:33:48;;;;;;;30.40;11.60;;;;;;;16.97;88.96;98610.35;67838;1277;1016316;-70
2023/07/04 01:36:51;;;;;;;28.60;11.40;;;;;;;16.97;89.65;98612.96;67852;1277;1016480;-68
2023/07/04 01:39:53;;;;;;;29.00;11.50;;;;;;;17.02;89.37;98612.48;67834;1277;1016461;-70
2023/07/04 01:42:56;;;;;;;29.50;12.40;;;;;;;16.94;90.93;98609.48;67831;1277;1016521;-68
2023/07/04 01:45:59;;;;;;;31.50;12.70;;;;;;;17.07;90.84;98606.94;67820;1277;1016971;-70
2023/07/04 01:49:02;;;;;;;31.00;12.40;;;;;;;17.15;90.92;98610.59;67757;1277;1016262;-70
2023/07/04 01:52:04;;;;;;;33.10;13.10;;;;;;;17.26;90.35;98607.11;67811;1277;1016963;-70
2023/07/04 01:55:07;;;;;;;31.20;12.50;;;;;;;17.34;89.26;98597.73;67801;1277;1016504;-68
2023/07/04 01:58:09;;;;;;;;;;;;;;;17.30;90.26;98602.34;67859;1277;1016395;-69
2023/07/04 02:01:12;;;;;;;;;;;;;;;17.13;91.77;98613.24;67819;1277;1016250;-68
2023/07/04 02:04:15;;;;;;;27.50;11.20;;;;;;;16.99;92.97;98616.48;67840;1277;1016218;-69
2023/07/04 02:07:17;;;;;;;;;;;;;;;16.98;94.67;98621.84;67869;1277;1018742;-70
2023/07/04 02:10:20;;;;;;;27.90;11.40;;;;;;;17.04;94.78;98622.72;67839;1277;1016508;-68
2023/07/04 02:13:22;;;;;;;31.00;12.10;;;;;;;17.07;94.03;98612.20;67861;1277;1016993;-68
2023/07/04 02:16:25;;;;;;;29.10;12.50;;;;;;;17.13;93.98;98603.23;67862;1277;1016499;-68
2023/07/04 02:19:28;;;;;;;;;;;;;;;17.14;93.90;98600.80;67850;1277;1018912;-70
2023/07/04 02:22:30;;;;;;;31.90;13.30;;;;;;;17.09;93.99;98601.95;67776;1277;1016494;-71
2023/07/04 02:25:33;;;;;;;30.60;12.20;;;;;;;17.16;93.64;98602.08;67857;1277;1016479;-68
2023/07/04 02:28:36;;;;;;;32.50;12.90;;;;;;;17.17;94.85;98601.95;67830;1277;1016217;-68
2023/07/04 02:31:39;;;;;;;28.70;12.10;;;;;;;17.19;95.32;98603.02;67818;1278;1019015;-69
2023/07/04 02:34:41;;;;;;;;;;;;;;;17.27;95.05;98610.61;67868;1277;1016440;-70
2023/07/04 02:37:44;;;;;;;32.50;12.30;;;;;;;17.38;95.02;98612.79;67829;1277;1016475;-68
2023/07/04 02:40:47;;;;;;;32.70;13.20;;;;;;;17.43;94.88;98608.90;67859;1277;1016478;-70
2023/07/04 02:43:50;;;;;;;;;;;;;;;17.50;93.59;98611.96;67842;1277;1016296;-69
2023/07/04 02:46:53;;;;;;;29.90;11.50;;;;;;;17.47;93.59;98610.35;67833;1277;1016193;-69
2023/07/04 02:49:55;;;;;;;31.80;11.60;;;;;;;17.49;93.96;98613.70;67810;1277;1016953;-69
2023/07/04 02:52:57;;;;;;;29.30;11.80;;;;;;;17.48;94.27;98617.06;67858;1277;1016842;-68
2023/07/04 02:56:00;;;;;;;;;;;;;;;17.47;95.20;98609.42;67811;1277;1016310;-70
2023/07/04 02:59:02;;;;;;;28.00;10.90;;;;;;;17.49;95.11;98594.55;67833;1277;1016932;-68
2023/07/04 03:02:05;;;;;;;29.60;11.50;;;;;;;17.57;94.39;98597.55;67832;1277;1016430;-70
2023/07/04 03:05:08;;;;;;;;;;;;;;;17.67;93.88;98607.61;67861;1277;1016259;-69
2023/07/04 03:08:10;;;;;;;30.50;11.10;;;;;;;17.76;94.02;98605.19;67821;1277;1016488;-68
2023/07/04 03:11:13;;;;;;;29.70;11.40;;;;;;;17.90;93.79;98603.01;67817;1277;1016429;-67
2023/07/04 03:14:16;;;;;;;31.60;10.70;;;;;;;17.86;94.80;98610.09;67827;1277;1016450;-70
2023/07/04 03:17:18;;;;;;;28.00;11.10;;;;;;;17.96;94.91;98608.41;67839;1277;1016499;-71
2023/07/04 03:20:21;;;;;;;28.90;11.00;;;;;;;18.30;92.54;98600.98;67843;1277;1018419;-69
2023/07/04 03:23:24;;;;;;;28.20;10.20;;;;;;;18.28;92.36;98602.20;67836;1277;1016244;-69
2023/07/04 03:26:26;;;;;;;31.40;11.00;;;;;;;18.34;92.06;98603.75;67782;1277;1017287;-70
2023/07/04 03:29:30;;;;;;;29.20;11.60;;;;;;;18.35;92.48;98611.97;67859;1277;1016457;-68
2023/07/04 03:32:33;;;;;;;29.90;12.50;;;;;;;18.45;92.63;98606.27;67805;1277;1016961;-69
2023/07/04 03:35:36;;;;;;;29.90;11.80;;;;;;;18.46;92.52;98603.26;67853;1277;1016411;-69
2023/07/04 03:38:39;;;;;;;29.90;11.20;;;;;;;18.45;93.00;98602.98;67825;1277;1016465;-67
2023/07/04 03:41:41;;;;;;;;;;;;;;;18.58;92.58;98595.98;67881;1277;1016435;-69
2023/07/04 03:44:44;;;;;;;27.50;12.30;;;;;;;18.65;93.20;98591.23;67863;1277;1016398;-67
2023/07/04 03:47:47;;;;;;;28.30;11.90;;;;;;;18.66;93.33;98596.17;67774;1277;1016417;-69
2023/07/04 03:50:49;;;;;;;;;;;;;;;18.90;91.18;98594.09;67877;1277;1016381;-69
2023/07/04 03:53:52;;;;;;;30.30;11.50;;;;;;;18.96;90.54;98597.70;67819;1277;1016223;-68
2023/07/04 03:56:54;;;;;;;27.30;11.80;;;;;;;18.82;92.78;98599.05;67802;1277;1016371;-67
2023/07/04 03:59:57;;;;;;;;;;;;;;;18.82;93.10;98606.02;67839;1277;1016233;-67
2023/07/04 04:02:59;;;;;;;29.70;12.20;;;;;;;18.72;93.22;98606.11;67808;1277;1018515;-70
2023/07/04 04:06:02;;;;;;;;;;;;;;;18.67;94.23;98606.57;67863;1277;1019651;-69
2023/07/04 04:09:05;;;;;;;28.90;11.60;;;;;;;18.87;95.10;98607.11;67801;1277;1016440;-69
2023/07/04 04:12:07;;;;;;;;;;;;;;;19.06;93.62;98605.27;67855;1278;1016305;-68
2023/07/04 04:15:10;;;;;;;;;;;;;;;19.09;93.52;98602.95;67820;1277;1016398;-68
2023/07/04 04:18:13;;;;;;;28.20;11.50;;;;;;;19.10;94.71;98607.88;67823;1277;1016368;-67
2023/07/04 04:21:15;;;;;;;29.70;12.30;;;;;;;19.41;92.99;98610.41;67809;1254;1016858;-69
2023/07/04 04:24:17;;;;;;;;;;;;;;;19.64;91.89;98613.66;67777;1277;1016341;-69
2023/07/04 04:27:20;;;;;;;30.70;12.10;;;;;;;19.82;91.16;98616.79;67861;1277;1018117;-70
2023/07/04 04:30:23;;;;;;;31.30;12.50;;;;;;;20.01;90.80;98624.77;67809;1277;1016366;-67
2023/07/04 04:33:25;;;;;;;28.60;12.40;;;;;;;20.30;89.17;98631.69;67821;1277;1018934;-71
2023/07/04 04:36:29;;;;;;;29.00;12.10;;;;;;;20.32;89.58;98635.09;67868;1277;1016486;-70
2023/07/04 04:39:32;;;;;;;29.20;12.80;;;;;;;20.40;89.32;98638.85;67828;1277;1016245;-68
2023/07/04 04:42:35;;;;;;;29.80;12.60;;;;;;;20.31;90.17;98643.58;67846;1277;1016017;-68
2023/07/04 04:45:38;;;;;;;30.40;12.40;;;;;;;20.42;89.90;98646.61;67867;1277;1015958;-70
2023/07/04 04:48:41;;;;;;;31.80;12.60;;;;;;;20.71;89.06;98649.45;67860;1277;1016619;-70
2023/07/04 04:51:44;;;;;;;32.10;13.10;;;;;;;20.93;88.75;98648.16;67840;1277;1016140;-68
2023/07/04 04:54:47;;;;;;;34.00;13.00;;;;;;;21.13;88.97;98649.75;67860;1277;1016407;-69
2023/07/04 04:57:50;;;;;;;33.50;12.20;;;;;;;21.32;88.91;98650.95;67822;1277;1016345;-67
2023/07/04 05:00:52;;;;;;;40.10;13.80;;;;;;;21.70;87.21;98650.94;67844;1277;1018001;-67
2023/07/04 05:03:55;;;;;;;33.70;13.30;;;;;;;22.07;82.71;98654.73;67881;1277;1016434;-69
2023/07/04 05:06:58;;;;;;;36.70;13.70;;;;;;;22.34;81.78;98658.48;67806;1277;1016347;-69
2023/07/04 05:10:02;;;;;;;38.10;13.60;;;;;;;22.47;80.39;98656.80;67859;1278;1016724;-69
2023/07/04 05:13:04;;;;;;;33.50;14.30;;;;;;;22.66;81.01;98655.20;67826;1277;1018227;-69
2023/07/04 05:16:07;;;;;;;33.50;15.00;;;;;;;22.99;78.56;98657.19;67861;1277;1016471;-67
2023/07/04 05:19:10;;;;;;;33.90;15.40;;;;;;;23.11;73.04;98658.45;67806;1277;1016521;-65
2023/07/04 05:22:13;;;;;;;33.30;14.90;;;;;;;23.00;71.81;98659.23;67882;1277;1016423;-69
2023/07/04 05:25:15;;;;;;;29.50;13.20;;;;;;;22.88;71.35;98657.20;67858;1277;1016567;-66
2023/07/04 05:28:17;;;;;;;36.70;13.10;;;;;;;23.02;71.93;98659.63;67848;1277;1016475;-67
2023/07/04 05:31:20;;;;;;;30.10;12.90;;;;;;;23.18;70.24;98656.73;67821;1277;1016241;-66
2023/07/04 05:34:23;;;;;;;32.40;13.00;;;;;;;23.37;69.10;98662.27;67784;1277;1016352;-65
2023/07/04 05:37:25;;;;;;;33.00;13.80;;;;;;;23.80;68.02;98662.92;67879;1277;1016414;-65
2023/07/04 05:40:28;;;;;;;38.70;15.90;;;;;;;24.15;69.23;98664.50;67832;1277;1016447;-66
2023/07/04 05:43:30;;;;;;;35.80;14.20;;;;;;;24.44;67.62;98668.48;67832;1277;1016004;-67
2023/07/04 05:46:32;;;;;;;39.60;14.80;;;;;;;24.62;65.75;98665.88;67662;1253;1016393;-66
2023/07/04 05:49:35;;;;;;;;;;;;;;;24.56;63.66;98666.34;67823;1277;1018609;-67
2023/07/04 05:52:37;;;;;;;37.40;14.80;;;;;;;24.58;65.32;98664.88;67854;1277;1016307;-65
2023/07/04 05:55:40;;;;;;;34.90;13.90;;;;;;;24.80;64.03;98666.84;67877;1277;1016398;-66
2023/07/04 05:58:42;;;;;;;33.40;15.50;;;;;;;25.02;63.54;98669.30;67815;1277;1016211;-65
2023/07/04 06:01:44;;;;;;;39.10;17.30;;;;;;;25.37;60.87;98671.45;67823;1277;1016356;-65
2023/07/04 06:04:47;;;;;;;37.60;15.10;;;;;;;25.64;60.19;98668.86;67847;1277;1016292;-67
2023/07/04 06:07:50;;;;;;;37.50;14.50;;;;;;;25.87;58.94;98672.09;67845;1277;1016441;-67
2023/07/04 06:10:52;;;;;;;30.60;13.40;;;;;;;26.15;57.16;98672.70;67840;1277;1016183;-65
2023/07/04 06:13:54;;;;;;;32.80;13.80;;;;;;;26.29;56.90;98677.54;67851;1277;1016618;-67
2023/07/04 06:16:57;;;;;;;35.20;14.50;;;;;;;26.24;55.80;98678.71;67815;1277;1016510;-65
2023/07/04 06:20:00;;;;;;;33.90;12.90;;;;;;;25.89;54.84;98686.45;67856;1277;1016356;-67
2023/07/04 06:23:02;;;;;;;35.80;14.80;;;;;;;25.97;56.04;98692.38;67860;1277;1016413;-65
2023/07/04 06:26:05;;;;;;;33.40;12.90;;;;;;;26.37;55.49;98693.38;67829;1277;1016342;-68
2023/07/04 06:29:07;;;;;;;32.70;12.70;;;;;;;26.77;55.17;98696.47;67790;1277;1016537;-68
2023/07/04 06:32:09;;;;;;;30.20;12.70;;;;;;;27.26;53.72;98695.73;67821;1277;1016070;-67
2023/07/04 06:35:12;;;;;;;32.90;12.00;;;;;;;27.58;54.40;98689.40;67870;1277;1016490;-68
2023/07/04 06:38:14;;;;;;;27.00;10.70;;;;;;;27.82;49.19;98689.52;67852;1277;1016390;-67
2023/07/04 06:41:17;;;;;;;32.60;11.30;;;;;;;27.74;48.96;98690.60;67834;1277;1016441;-68
2023/07/04 06:44:19;;;;;;;28.50;9.90;;;;;;;27.97;49.92;98691.52;67800;1277;1017985;-68
2023/07/04 06:47:22;;;;;;;25.40;9.40;;;;;;;28.20;45.90;98692.52;67862;1277;1016793;-68
2023/07/04 06:50:24;;;;;;;28.70;8.80;;;;;;;28.46;44.73;98694.02;67891;1277;1016277;-66
2023/07/04 06:53:26;;;;;;;30.00;9.20;;;;;;;28.64;43.66;98690.02;67865;1277;1016403;-65
2023/07/04 06:56:30;;;;;;;26.20;9.00;;;;;;;28.76;44.80;98687.48;67818;1277;1016258;-66
2023/07/04 06:59:33;;;;;;;25.00;8.10;;;;;;;29.01;44.01;98690.18;67819;1277;1016045;-66
2023/07/04 07:02:35;;;;;;;25.70;8.20;;;;;;;29.30;43.93;98693.97;67846;1277;1015573;-68
2023/07/04 07:05:38;;;;;;;26.50;9.00;;;;;;;29.48;43.71;98692.02;67838;1277;1016109;-66
2023/07/04 07:08:40;;;;;;;25.10;8.50;;;;;;;29.78;43.27;98690.98;67824;1277;1016485;-66
2023/07/04 07:11:42;;;;;;;26.30;9.40;;;;;;;29.76;39.64;98696.23;67848;1277;1016484;-64
2023/07/04 07:14:45;;;;;;;28.40;7.80;;;;;;;29.41;39.59;98696.22;67814;1277;1018189;-67
2023/07/04 07:17:47;;;;;;;26.40;8.00;;;;;;;29.21;39.08;98697.59;67823;1277;1016466;-67
2023/07/04 07:20:50;;;;;;;88.90;12.50;;;;;;;29.09;40.38;98699.30;67791;1277;1016731;-68
2023/07/04 07:23:52;;;;;;;37.90;8.60;;;;;;;29.40;40.22;98697.59;67802;1277;1016218;-65
2023/07/04 07:26:54;;;;;;;35.60;9.10;;;;;;;29.33;38.77;98699.89;67810;1277;1016287;-65
2023/07/04 07:29:57;;;;;;;30.80;8.60;;;;;;;29.50;38.50;98703.10;67820;1277;1015700;-68
2023/07/04 07:33:00;;;;;;;25.10;8.40;;;;;;;29.35;38.22;98703.56;67834;1277;1017292;-67
2023/07/04 07:36:02;;;;;;;26.20;7.70;;;;;;;29.06;38.50;98708.84;67803;1278;1018808;-68
2023/07/04 07:39:04;;;;;;;26.10;8.10;;;;;;;29.33;38.62;98704.04;67822;1278;1019366;-68
2023/07/04 07:42:07;;;;;;;23.80;7.80;;;;;;;29.60;39.40;98702.94;67823;1278;1016431;-68
2023/07/04 07:45:09;;;;;;;26.40;7.20;;;;;;;29.87;38.29;98701.02;67799;1278;1016146;-68
2023/07/04 07:48:12;;;;;;;23.20;6.90;;;;;;;29.61;36.38;98708.65;67845;1277;1016751;-68
2023/07/04 07:51:14;;;;;;;24.90;7.20;;;;;;;29.32;35.63;98706.89;67796;1277;1016497;-65
2023/07/04 07:54:17;;;;;;;22.80;7.90;;;;;;;29.26;36.64;98702.80;67760;1278;1016393;-64
2023/07/04 07:57:19;;;;;;;34.40;7.70;;;;;;;29.65;37.68;98698.77;67827;1278;1016187;-65
2023/07/04 08:00:21;;;;;;;23.60;6.90;;;;;;;30.07;36.64;98699.92;67846;1278;1016056;-66
2023/07/04 08:03:24;;;;;;;22.10;6.30;;;;;;;30.00;35.54;98697.36;67811;1278;1016407;-64
2023/07/04 08:06:26;;;;;;;25.50;6.90;;;;;;;29.78;35.11;98701.67;67799;1278;1016456;-64
2023/07/04 08:09:28;;;;;;;28.00;6.90;;;;;;;29.69;34.46;98703.66;67748;1278;1016239;-63
2023/07/04 08:12:31;;;;;;;20.70;6.80;;;;;;;29.53;34.63;98700.49;67807;1278;1016431;-64
2023/07/04 08:15:33;;;;;;;22.60;6.90;;;;;;;29.73;35.94;98699.54;67845;1278;1016102;-64
2023/07/04 08:18:36;;;;;;;21.60;6.40;;;;;;;30.01;36.21;98695.61;67833;1278;1018420;-64
2023/07/04 08:21:38;;;;;;;21.30;6.60;;;;;;;30.13;34.66;98696.36;67804;1278;1016744;-64
2023/07/04 08:24:40;;;;;;;25.10;6.90;;;;;;;30.42;35.46;98692.19;67808;1278;1016478;-64
2023/07/04 08:27:43;;;;;;;22.80;6.60;;;;;;;30.78;35.21;98692.52;67779;1278;1016477;-64
2023/07/04 08:30:45;;;;;;;24.10;7.10;;;;;;;30.84;34.84;98696.27;67811;1278;1016844;-64
2023/07/04 08:33:48;;;;;;;20.50;6.60;;;;;;;30.85;33.52;98699.54;67810;1278;1016356;-66
2023/07/04 08:36:50;;;;;;;26.40;6.60;;;;;;;30.48;32.59;98701.70;67801;1278;1016094;-65
2023/07/04 08:39:52;;;;;;;22.60;6.60;;;;;;;30.20;33.93;98700.08;67771;1278;1016443;-64
2023/07/04 08:42:55;;;;;;;23.60;6.60;;;;;;;30.33;33.87;98698.82;67781;1278;1016244;-64
2023/07/04 08:45:57;;;;;;;20.50;6.50;;;;;;;30.19;32.43;98699.35;67789;1278;1016331;-63
2023/07/04 08:49:00;;;;;;;24.90;7.10;;;;;;;30.25;34.43;98698.73;67810;1278;1016440;-64
2023/07/04 08:52:03;;;;;;;22.10;6.20;;;;;;;30.51;33.19;98697.89;67797;1278;1016396;-64
2023/07/04 08:55:06;;;;;;;21.30;6.30;;;;;;;30.28;32.95;98699.20;67789;1278;1016518;-63
2023/07/04 08:58:08;;;;;;;20.60;6.10;;;;;;;29.97;32.89;98696.69;67817;1278;1016862;-64
2023/07/04 09:01:11;;;;;;;20.10;6.00;;;;;;;30.09;34.00;98695.87;67799;1278;1016469;-64
2023/07/04 09:04:13;;;;;;;22.70;6.90;;;;;;;30.25;33.06;98698.73;67775;1278;1016877;-64
2023/07/04 09:07:15;;;;;;;21.00;6.40;;;;;;;30.36;34.46;98693.05;67779;1278;1016414;-64
2023/07/04 09:10:18;;;;;;;19.00;5.60;;;;;;;30.84;34.57;98692.14;67791;1278;1016524;-64
2023/07/04 09:13:21;;;;;;;23.40;6.20;;;;;;;31.13;33.20;98698.31;67848;1278;1017265;-64
2023/07/04 09:16:23;;;;;;;20.70;4.70;;;;;;;30.62;31.45;98703.19;67772;1278;1020258;-65
2023/07/04 09:19:25;;;;;;;20.80;5.40;;;;;;;30.17;31.99;98697.44;67766;1278;1016069;-65
2023/07/04 09:22:29;;;;;;;20.90;5.80;;;;;;;30.14;32.80;98696.17;67795;1278;1016294;-64
2023/07/04 09:25:31;;;;;;;20.30;5.50;;;;;;;30.28;33.07;98695.17;67784;1278;1016562;-66
2023/07/04 09:28:34;;;;;;;21.30;4.90;;;;;;;30.28;32.44;98693.39;67779;1278;1016412;-64
2023/07/04 09:31:38;;;;;;;20.70;5.20;;;;;;;30.03;34.02;98694.23;67774;1278;1016489;-63
2023/07/04 09:34:40;;;;;;;20.20;5.40;;;;;;;30.45;34.12;98694.08;67799;1278;1016008;-65
2023/07/04 09:37:43;;;;;;;19.60;5.40;;;;;;;31.01;34.00;98688.68;67793;1278;1016444;-64
2023/07/04 09:40:45;;;;;;;18.80;5.90;;;;;;;31.46;34.19;98686.68;67784;1278;1016483;-65
2023/07/04 09:43:48;;;;;;;22.30;5.60;;;;;;;31.34;32.25;98691.91;67783;1278;1016433;-64
2023/07/04 09:46:50;;;;;;;16.00;5.10;;;;;;;30.99;32.67;98686.21;67804;1278;1016671;-64
2023/07/04 09:49:53;;;;;;;17.80;5.30;;;;;;;30.99;32.58;98686.27;67849;1278;1018859;-64
2023/07/04 09:52:55;;;;;;;19.10;5.50;;;;;;;30.78;32.72;98681.48;67774;1278;1016415;-64
2023/07/04 09:55:57;;;;;;;17.70;5.20;;;;;;;30.57;32.98;98690.40;67765;1278;1016650;-64
2023/07/04 09:59:00;;;;;;;18.30;5.10;;;;;;;30.54;33.61;98686.65;67816;1278;1016751;-65
2023/07/04 10:02:03;;;;;;;19.40;5.20;;;;;;;30.85;33.43;98683.51;67820;1278;1016416;-65
2023/07/04 10:05:05;;;;;;;19.30;5.10;;;;;;;31.25;33.31;98679.70;67782;1278;1016380;-62
2023/07/04 10:08:08;;;;;;;21.20;5.60;;;;;;;31.41;32.94;98675.88;67773;1278;1016267;-64
2023/07/04 10:11:10;;;;;;;22.50;5.40;;;;;;;31.56;32.78;98682.75;67808;1278;1018122;-64
2023/07/04 10:14:13;;;;;;;20.90;5.30;;;;;;;31.72;32.39;98684.52;67860;1278;1017063;-64
2023/07/04 10:17:16;;;;;;;18.90;5.10;;;;;;;31.42;32.57;98681.70;67770;1278;1015847;-64
2023/07/04 10:20:18;;;;;;;20.40;5.50;;;;;;;31.50;32.45;98682.00;67808;1278;1016398;-64
2023/07/04 10:23:22;;;;;;;19.10;5.60;;;;;;;31.69;32.03;98685.47;67766;1278;1016407;-64
2023/07/04 10:26:24;;;;;;;18.20;5.40;;;;;;;31.58;32.37;98680.48;67778;1278;1016508;-64
2023/07/04 10:29:26;;;;;;;18.30;5.30;;;;;;;32.01;33.45;98677.64;67776;1278;1018711;-64
2023/07/04 10:32:29;;;;;;;16.80;5.60;;;;;;;32.65;32.06;98679.64;67790;1278;1016347;-64
2023/07/04 10:35:31;;;;;;;23.70;6.10;;;;;;;32.12;30.40;98686.95;67819;1278;1016458;-64
2023/07/04 10:38:34;;;;;;;19.50;5.80;;;;;;;31.80;32.10;98681.95;67832;1278;1016758;-65
2023/07/04 10:41:36;;;;;;;21.00;6.40;;;;;;;32.13;31.88;98685.95;67799;1278;1016136;-64
2023/07/04 10:44:38;;;;;;;21.60;5.80;;;;;;;32.28;31.95;98686.11;67783;1278;1016468;-65
2023/07/04 10:47:41;;;;;;;21.50;5.70;;;;;;;32.47;31.93;98684.23;67780;1278;1016404;-64
2023/07/04 10:50:43;;;;;;;20.80;5.80;;;;;;;32.66;31.73;98680.88;67843;1278;1016345;-65
2023/07/04 10:53:46;;;;;;;18.70;5.70;;;;;;;32.65;31.30;98684.23;67808;1278;1016581;-65
2023/07/04 10:56:48;;;;;;;21.40;6.50;;;;;;;32.44;30.42;98681.40;67776;1278;1016511;-64
2023/07/04 10:59:51;;;;;;;20.20;5.80;;;;;;;32.36;30.09;98682.92;67759;1278;1016268;-64
2023/07/04 11:02:53;;;;;;;27.90;6.40;;;;;;;31.86;29.81;98682.51;67821;1278;1016630;-65
2023/07/04 11:05:56;;;;;;;26.10;6.50;;;;;;;31.75;30.87;98681.70;67825;1278;1016397;-64
2023/07/04 11:09:00;;;;;;;21.70;5.90;;;;;;;32.02;31.98;98681.84;67756;1278;1016448;-63
2023/07/04 11:12:02;;;;;;;18.70;5.70;;;;;;;32.13;31.95;98675.64;67815;1278;1016029;-64
2023/07/04 11:15:04;;;;;;;19.20;5.60;;;;;;;32.49;32.08;98670.98;67765;1278;1016452;-64
2023/07/04 11:18:09;;;;;;;20.70;5.80;;;;;;;32.43;29.67;98673.52;67783;1278;1016362;-64
2023/07/04 11:21:12;;;;;;;48.50;7.90;;;;;;;32.07;29.31;98675.46;67824;1278;1016477;-64
2023/07/04 11:24:14;;;;;;;19.50;6.30;;;;;;;31.63;29.99;98678.53;67815;1278;1016658;-65
2023/07/04 11:27:17;;;;;;;21.90;6.40;;;;;;;31.28;30.22;98671.17;67766;1278;1016255;-65
2023/07/04 11:30:19;;;;;;;20.30;6.50;;;;;;;31.50;32.00;98663.75;67781;1278;1016494;-65
2023/07/04 11:33:22;;;;;;;21.90;6.70;;;;;;;31.75;30.58;98670.88;67794;1278;1016973;-65
2023/07/04 11:36:24;;;;;;;25.50;6.90;;;;;;;31.68;30.31;98670.16;67778;1278;1015646;-64
2023/07/04 11:39:28;;;;;;;20.90;7.00;;;;;;;31.56;30.79;98672.04;67799;1278;1016567;-65
2023/07/04 11:42:31;;;;;;;22.90;7.50;;;;;;;31.69;30.14;98676.27;67771;1278;1016651;-65
2023/07/04 11:45:33;;;;;;;57.60;9.60;;;;;;;31.91;30.27;98665.05;67779;1278;1018816;-64
2023/07/04 11:48:36;;;;;;;24.90;7.10;;;;;;;32.08;30.38;98664.94;67802;1278;1016738;-65
2023/07/04 11:51:38;;;;;;;37.00;8.30;;;;;;;32.01;29.44;98665.92;67792;1278;1016371;-65
2023/07/04 11:54:41;;;;;;;81.70;9.60;;;;;;;32.16;30.00;98657.77;67793;1278;1016279;-64
2023/07/04 11:57:43;;;;;;;21.60;6.60;;;;;;;32.30;30.22;98661.63;67785;1278;1019716;-65
2023/07/04 12:00:46;;;;;;;20.80;6.00;;;;;;;32.50;30.25;98663.39;67824;1278;1016757;-65
2023/07/04 12:03:48;;;;;;;18.00;5.80;;;;;;;32.54;29.19;98661.95;67819;1278;1016620;-64
2023/07/04 12:06:51;;;;;;;19.50;6.10;;;;;;;32.47;29.99;98660.79;67808;1278;1016496;-65
2023/07/04 12:09:53;;;;;;;18.90;5.60;;;;;;;32.40;29.63;98661.94;67787;1278;1016413;-67
2023/07/04 12:12:56;;;;;;;20.00;6.30;;;;;;;32.54;29.20;98660.05;67800;1278;1016257;-65
2023/07/04 12:15:58;;;;;;;19.60;5.80;;;;;;;32.61;28.81;98658.59;67830;1278;1016454;-65
2023/07/04 12:19:01;;;;;;;22.10;6.10;;;;;;;32.69;29.14;98656.72;67843;1278;1018095;-65
2023/07/04 12:22:03;;;;;;;20.00;6.50;;;;;;;32.69;29.02;98653.09;67830;1278;1016455;-64
2023/07/04 12:25:06;;;;;;;20.00;6.70;;;;;;;32.69;28.81;98655.55;67761;1278;1016169;-66
2023/07/04 12:28:08;;;;;;;21.50;6.90;;;;;;;32.89;28.89;98653.91;67813;1278;1016410;-65
2023/07/04 12:31:10;;;;;;;18.70;6.20;;;;;;;33.17;29.00;98649.09;67810;1278;1016110;-64
2023/07/04 12:34:13;;;;;;;18.90;6.60;;;;;;;33.44;28.11;98651.34;67797;1278;1016587;-66
2023/07/04 12:37:19;;;;;;;35.80;8.40;;;;;;;33.46;28.14;98651.38;67806;1278;1016566;-64
2023/07/04 12:40:21;;;;;;;21.80;7.10;;;;;;;33.56;27.55;98646.91;67766;1278;1016108;-65
2023/07/04 12:43:24;;;;;;;22.50;7.50;;;;;;;33.53;28.33;98640.44;67805;1278;1016840;-64
2023/07/04 12:46:26;;;;;;;30.30;8.40;;;;;;;33.84;28.30;98638.91;67823;1278;1016503;-65
2023/07/04 12:49:28;;;;;;;20.90;7.80;;;;;;;34.17;28.04;98636.98;67806;1278;1019594;-65
2023/07/04 12:52:31;;;;;;;20.10;8.50;;;;;;;33.96;27.10;98643.38;67785;1278;1015898;-65
2023/07/04 12:55:33;;;;;;;26.20;8.70;;;;;;;33.62;28.09;98639.50;67762;1256;1017046;-65
2023/07/04 12:58:36;;;;;;;24.10;9.60;;;;;;;33.96;28.11;98634.57;67791;1278;1016550;-64
2023/07/04 13:01:38;;;;;;;22.20;9.40;;;;;;;33.84;26.74;98641.52;67818;1278;1016146;-66
2023/07/04 13:04:41;;;;;;;23.40;8.80;;;;;;;33.47;26.84;98646.21;67786;1278;1016351;-65
2023/07/04 13:07:43;;;;;;;24.70;9.50;;;;;;;33.40;27.04;98639.75;67801;1278;1016207;-65
2023/07/04 13:10:48;;;;;;;23.30;9.80;;;;;;;32.99;26.68;98644.81;67826;1278;1016275;-65
2023/07/04 13:13:50;;;;;;;22.60;9.20;;;;;;;33.02;28.16;98645.43;67814;1278;1016181;-65
2023/07/04 13:16:52;;;;;;;24.20;9.90;;;;;;;33.41;27.54;98645.96;67793;1278;1016463;-66
2023/07/04 13:19:55;;;;;;;22.60;9.80;;;;;;;33.46;27.07;98650.13;67815;1278;1016457;-65
2023/07/04 13:22:57;;;;;;;21.60;9.80;;;;;;;33.47;26.85;98642.70;67774;1278;1016507;-67
2023/07/04 13:25:59;;;;;;;26.50;10.10;;;;;;;33.41;25.96;98654.42;67779;1278;1016847;-65
2023/07/04 13:29:02;;;;;;;26.40;10.20;;;;;;;32.73;25.65;98655.07;67806;1278;1016313;-65
2023/07/04 13:32:04;;;;;;;24.70;10.00;;;;;;;32.30;25.97;98656.46;67831;1278;1016300;-66
2023/07/04 13:35:07;;;;;;;21.70;9.50;;;;;;;31.68;27.12;98650.42;67836;1278;1016487;-65
2023/07/04 13:38:09;;;;;;;23.50;10.10;;;;;;;31.92;27.71;98651.89;67783;1278;1016442;-64
2023/07/04 13:41:12;;;;;;;23.10;10.10;;;;;;;31.49;27.50;98655.48;67835;1278;1016563;-65
2023/07/04 13:44:14;;;;;;;23.80;10.50;;;;;;;31.48;27.78;98650.63;67827;1278;1016250;-65
2023/07/04 13:47:17;;;;;;;24.60;10.70;;;;;;;31.73;27.47;98639.27;67806;1278;1016129;-65
2023/07/04 13:50:19;;;;;;;24.50;10.60;;;;;;;32.29;27.71;98635.72;67782;1277;1016381;-65
2023/07/04 13:53:22;;;;;;;25.40;10.70;;;;;;;32.63;27.69;98628.27;67792;1278;1016708;-68